Strona główna
METAR-TAF:

METAR-TAF

Lotnisko :

Adrian, Michigan, Stany Zjednoczone

Szerokość geograficzna: 41-52-04N, Długość geograficzna: 084-04-46W, wysokość: 244 m

Aktualna obserwacja pogody

Raport powstał 59 minut temu, godzina 06:53 UTC
Wiatr 5 kt od północno-północny zachód
Temperatura -11°C
Wilgotność 85%
Ciśnienie 1030 hPa
Widzialność: 16.1 km
bezchmurnie

METAR: KADG 200653Z AUTO 33005KT 10SM CLR M11/M13 A3041 RMK AO2 SLP315 T11061133

czas: 02:52 (07:52 UTC)


TAF: brakujący

Obserwacja i prognoza pogody dla ponad 4000 lotnisk (raport METAR i TAF).

Dostępne stacje oznaczono żółtymi i czerwonymi punktami na mapie.

Najedź kursorem aby zobaczyć nazwę stacji.

Kliknij aby zobaczyć obserwacje i prognozy pogody.

Aby zmienić mapę: kliknij na zielony przycisk z czarnym krzyżykiem, aby powiększyć; na zielony przycisk z myślnikiem, aby pomniejszyć; na zielone strzałki, aby przejść do map sąsiednich.


METAR-TAF: